createdAt,value
2019-02-28T00:00:47.900Z,1016.2
2019-02-28T00:01:47.885Z,1016.2
2019-02-28T00:02:47.864Z,1016.15
2019-02-28T00:03:47.838Z,1016.18
2019-02-28T00:04:47.819Z,1016.13
2019-02-28T00:05:47.801Z,1016.16
2019-02-28T00:06:47.780Z,1016.14
2019-02-28T00:07:49.585Z,1016.11
2019-02-28T00:08:47.735Z,1016.14
2019-02-28T00:09:47.721Z,1016.11
2019-02-28T00:10:47.698Z,1016.12
2019-02-28T00:11:47.675Z,1016.14
2019-02-28T00:12:48.025Z,1016.11
2019-02-28T00:13:47.632Z,1016.14
2019-02-28T00:14:47.616Z,1016.1
2019-02-28T00:15:47.595Z,1016.1
2019-02-28T00:16:47.575Z,1016.14
2019-02-28T00:17:47.549Z,1016.12
2019-02-28T00:18:49.808Z,1016.12
2019-02-28T00:19:47.512Z,1016.12
2019-02-28T00:20:47.497Z,1016.08
2019-02-28T00:21:47.466Z,1016.1
2019-02-28T00:22:49.162Z,1016.12
2019-02-28T00:23:47.430Z,1016.07
2019-02-28T00:24:47.408Z,1016.09
2019-02-28T00:25:47.388Z,1016.1
2019-02-28T00:26:47.902Z,1016.11
2019-02-28T00:27:47.347Z,1016.11
2019-02-28T00:28:47.321Z,1016.09
2019-02-28T00:29:47.305Z,1016.05
2019-02-28T00:30:47.281Z,1016.06
2019-02-28T00:31:49.856Z,1016.06
2019-02-28T00:32:47.238Z,1016.04
2019-02-28T00:33:47.225Z,1016.08
2019-02-28T00:34:47.203Z,1016.07
2019-02-28T00:35:47.175Z,1016.08
2019-02-28T00:36:47.155Z,1016.01
2019-02-28T00:37:47.139Z,1015.99
2019-02-28T00:38:47.121Z,1015.96
2019-02-28T00:39:47.093Z,1015.97
2019-02-28T00:40:47.072Z,1015.98
2019-02-28T00:41:47.050Z,1016.03
2019-02-28T00:42:48.012Z,1016.02
2019-02-28T00:43:47.011Z,1015.95
2019-02-28T00:44:46.993Z,1015.96
2019-02-28T00:45:46.968Z,1015.93
2019-02-28T00:46:46.952Z,1015.98
2019-02-28T00:47:47.678Z,1015.96
2019-02-28T00:48:46.910Z,1015.93
2019-02-28T00:49:46.885Z,1015.97
2019-02-28T00:50:46.864Z,1015.97
2019-02-28T00:51:46.847Z,1015.96
2019-02-28T00:52:46.827Z,1015.94
2019-02-28T00:53:46.800Z,1015.98
2019-02-28T00:54:46.781Z,1015.95
2019-02-28T00:55:47.020Z,1015.94
2019-02-28T00:56:51.367Z,1015.89
2019-02-28T00:57:46.722Z,1015.89
2019-02-28T00:58:46.697Z,1015.86
2019-02-28T00:59:46.681Z,1015.89
2019-02-28T01:00:46.656Z,1015.86
2019-02-28T01:01:46.852Z,1015.86
2019-02-28T01:02:51.860Z,1015.9
2019-02-28T01:03:46.593Z,1015.83
2019-02-28T01:04:46.570Z,1015.82
2019-02-28T01:05:46.556Z,1015.84
2019-02-28T01:06:46.534Z,1015.81
2019-02-28T01:07:48.053Z,1015.8
2019-02-28T01:08:46.488Z,1015.81
2019-02-28T01:09:46.473Z,1015.77
2019-02-28T01:10:46.457Z,1015.75
2019-02-28T01:11:46.427Z,1015.76
2019-02-28T01:12:46.406Z,1015.77
2019-02-28T01:13:46.384Z,1015.76
2019-02-28T01:14:46.368Z,1015.71
2019-02-28T01:15:46.351Z,1015.71
2019-02-28T01:16:46.326Z,1015.74
2019-02-28T01:17:46.300Z,1015.7
2019-02-28T01:18:46.285Z,1015.63
2019-02-28T01:19:46.263Z,1015.63
2019-02-28T01:20:49.694Z,1015.63
2019-02-28T01:21:46.222Z,1015.65
2019-02-28T01:22:46.196Z,1015.62
2019-02-28T01:23:46.180Z,1015.6
2019-02-28T01:24:46.159Z,1015.61
2019-02-28T01:25:46.135Z,1015.6
2019-02-28T01:26:46.537Z,1015.58
2019-02-28T01:27:46.096Z,1015.61
2019-02-28T01:28:46.075Z,1015.6
2019-02-28T01:29:46.055Z,1015.63
2019-02-28T01:30:46.029Z,1015.6
2019-02-28T01:31:46.013Z,1015.62
2019-02-28T01:32:49.619Z,1015.61
2019-02-28T01:33:45.972Z,1015.61
2019-02-28T01:34:45.946Z,1015.59
2019-02-28T01:35:45.926Z,1015.56
2019-02-28T01:36:48.659Z,1015.58
2019-02-28T01:37:45.887Z,1015.58
2019-02-28T01:38:45.868Z,1015.58
2019-02-28T01:39:45.842Z,1015.59
2019-02-28T01:40:45.821Z,1015.55
2019-02-28T01:41:45.901Z,1015.57
2019-02-28T01:42:45.783Z,1015.56
2019-02-28T01:43:45.758Z,1015.56
2019-02-28T01:44:45.738Z,1015.52
2019-02-28T01:45:45.715Z,1015.58
2019-02-28T01:46:48.433Z,1015.53
2019-02-28T01:47:45.675Z,1015.54
2019-02-28T01:48:45.658Z,1015.51
2019-02-28T01:49:45.633Z,1015.55
2019-02-28T01:50:45.617Z,1015.53
2019-02-28T01:51:45.599Z,1015.54
2019-02-28T01:52:46.161Z,1015.46
2019-02-28T01:53:45.549Z,1015.47
2019-02-28T01:54:45.529Z,1015.5
2019-02-28T01:55:45.512Z,1015.47
2019-02-28T01:56:45.491Z,1015.42
2019-02-28T01:57:45.466Z,1015.4
2019-02-28T01:58:47.563Z,1015.36
2019-02-28T01:59:45.428Z,1015.33
2019-02-28T02:00:45.408Z,1015.33
2019-02-28T02:01:45.387Z,1015.29
2019-02-28T02:02:45.365Z,1015.3
2019-02-28T02:03:45.344Z,1015.3
2019-02-28T02:04:45.732Z,1015.25
2019-02-28T02:05:45.303Z,1015.29
2019-02-28T02:06:45.277Z,1015.28
2019-02-28T02:07:45.256Z,1015.27
2019-02-28T02:08:45.235Z,1015.26
2019-02-28T02:09:46.045Z,1015.25
2019-02-28T02:10:45.197Z,1015.28
2019-02-28T02:11:45.173Z,1015.23
2019-02-28T02:12:45.152Z,1015.23
2019-02-28T02:13:45.138Z,1015.19
2019-02-28T02:14:45.786Z,1015.19
2019-02-28T02:15:45.094Z,1015.15
2019-02-28T02:16:45.067Z,1015.13
2019-02-28T02:17:45.047Z,1015.14
2019-02-28T02:18:45.029Z,1015.08
2019-02-28T02:19:45.008Z,1015.14
2019-02-28T02:20:44.988Z,1015.03
2019-02-28T02:21:44.962Z,1014.96
2019-02-28T02:22:45.387Z,1014.98
2019-02-28T02:23:44.927Z,1014.97
2019-02-28T02:24:44.904Z,1014.97
2019-02-28T02:25:44.879Z,1014.97
2019-02-28T02:26:45.131Z,1014.96
2019-02-28T02:27:44.841Z,1014.98
2019-02-28T02:28:44.819Z,1014.92
2019-02-28T02:29:44.794Z,1014.91
2019-02-28T02:30:50.403Z,1014.94
2019-02-28T02:31:44.753Z,1014.92
2019-02-28T02:32:44.733Z,1014.88
2019-02-28T02:33:50.672Z,1014.85
2019-02-28T02:34:44.699Z,1014.75
2019-02-28T02:35:44.669Z,1014.83
2019-02-28T02:36:44.651Z,1014.75
2019-02-28T02:37:44.631Z,1014.75
2019-02-28T02:38:44.610Z,1014.69
2019-02-28T02:39:44.589Z,1014.71
2019-02-28T02:40:44.569Z,1014.68
2019-02-28T02:41:44.542Z,1014.7
2019-02-28T02:42:48.343Z,1014.68
2019-02-28T02:43:44.506Z,1014.65
2019-02-28T02:44:44.486Z,1014.67
2019-02-28T02:45:44.459Z,1014.7
2019-02-28T02:46:44.438Z,1014.64
2019-02-28T02:47:44.431Z,1014.68
2019-02-28T02:48:44.401Z,1014.66
2019-02-28T02:49:44.380Z,1014.63
2019-02-28T02:50:44.361Z,1014.64
2019-02-28T02:51:48.756Z,1014.61
2019-02-28T02:52:44.324Z,1014.61
2019-02-28T02:53:44.303Z,1014.6
2019-02-28T02:54:44.268Z,1014.58
2019-02-28T02:55:44.249Z,1014.6
2019-02-28T02:56:44.241Z,1014.57
2019-02-28T02:57:50.386Z,1014.58
2019-02-28T02:58:44.193Z,1014.57
2019-02-28T02:59:44.164Z,1014.55
2019-02-28T03:00:49.259Z,1014.57
2019-02-28T03:01:44.126Z,1014.58
2019-02-28T03:02:44.105Z,1014.59
2019-02-28T03:03:44.537Z,1014.6
2019-02-28T03:04:44.061Z,1014.59
2019-02-28T03:05:44.038Z,1014.53
2019-02-28T03:06:45.841Z,1014.56
2019-02-28T03:07:44.016Z,1014.53
2019-02-28T03:08:43.979Z,1014.52
2019-02-28T03:09:44.754Z,1014.57
2019-02-28T03:10:43.937Z,1014.5
2019-02-28T03:11:43.917Z,1014.51
2019-02-28T03:12:43.894Z,1014.5
2019-02-28T03:13:44.251Z,1014.5
2019-02-28T03:14:43.848Z,1014.52
2019-02-28T03:15:43.836Z,1014.48
2019-02-28T03:16:43.811Z,1014.46
2019-02-28T03:17:47.047Z,1014.46
2019-02-28T03:18:43.765Z,1014.5
2019-02-28T03:19:43.749Z,1014.47
2019-02-28T03:20:43.727Z,1014.5
2019-02-28T03:21:50.956Z,1014.48
2019-02-28T03:22:43.683Z,1014.39
2019-02-28T03:23:43.664Z,1014.41
2019-02-28T03:24:50.397Z,1014.39
2019-02-28T03:25:43.626Z,1014.43
2019-02-28T03:26:43.602Z,1014.42
2019-02-28T03:27:43.582Z,1014.45
2019-02-28T03:28:43.555Z,1014.4
2019-02-28T03:29:44.669Z,1014.39
2019-02-28T03:30:43.517Z,1014.43
2019-02-28T03:31:54.411Z,1014.38
2019-02-28T03:32:43.475Z,1014.42
2019-02-28T03:33:43.460Z,1014.41
2019-02-28T03:34:54.576Z,1014.44
2019-02-28T03:35:44.214Z,1014.43
2019-02-28T03:36:43.498Z,1014.44
2019-02-28T03:37:43.370Z,1014.41
2019-02-28T03:38:48.126Z,1014.42
2019-02-28T03:39:43.323Z,1014.43
2019-02-28T03:40:43.307Z,1014.44
2019-02-28T03:41:43.281Z,1014.33
2019-02-28T03:42:43.269Z,1014.36
2019-02-28T03:43:44.137Z,1014.39
2019-02-28T03:44:43.223Z,1014.37
2019-02-28T03:45:43.204Z,1014.4
2019-02-28T03:46:46.678Z,1014.4
2019-02-28T03:47:43.164Z,1014.46
2019-02-28T03:48:43.238Z,1014.46
2019-02-28T03:49:48.369Z,1014.46
2019-02-28T03:50:43.103Z,1014.5
2019-02-28T03:51:43.074Z,1014.45
2019-02-28T03:52:44.617Z,1014.43
2019-02-28T03:53:43.030Z,1014.42
2019-02-28T03:54:43.006Z,1014.44
2019-02-28T03:55:42.990Z,1014.51
2019-02-28T03:56:42.964Z,1014.35
2019-02-28T03:57:42.952Z,1014.35
2019-02-28T03:58:43.199Z,1014.37
2019-02-28T03:59:42.900Z,1014.36
2019-02-28T04:00:42.879Z,1014.33
2019-02-28T04:01:45.438Z,1014.36
2019-02-28T04:02:42.841Z,1014.31
2019-02-28T04:03:42.816Z,1014.34
2019-02-28T04:04:48.383Z,1014.33
2019-02-28T04:05:42.796Z,1014.28
2019-02-28T04:06:42.757Z,1014.28
2019-02-28T04:07:42.729Z,1014.28
2019-02-28T04:08:42.710Z,1014.23
2019-02-28T04:09:44.108Z,1014.25
2019-02-28T04:10:42.693Z,1014.29
2019-02-28T04:11:42.645Z,1014.28
2019-02-28T04:12:45.513Z,1014.3
2019-02-28T04:13:42.604Z,1014.28
2019-02-28T04:14:42.586Z,1014.29
2019-02-28T04:15:47.303Z,1014.26
2019-02-28T04:16:42.545Z,1014.29
2019-02-28T04:17:42.519Z,1014.26
2019-02-28T04:18:45.846Z,1014.24
2019-02-28T04:19:42.481Z,1014.26
2019-02-28T04:20:42.460Z,1014.25
2019-02-28T04:21:46.004Z,1014.26
2019-02-28T04:22:42.429Z,1014.31
2019-02-28T04:23:42.397Z,1014.26
2019-02-28T04:24:46.199Z,1014.23
2019-02-28T04:25:42.353Z,1014.21
2019-02-28T04:26:42.329Z,1014.23
2019-02-28T04:27:42.329Z,1014.22
2019-02-28T04:28:42.285Z,1014.22
2019-02-28T04:29:42.268Z,1014.2
2019-02-28T04:30:43.670Z,1014.23
2019-02-28T04:31:42.223Z,1014.16
2019-02-28T04:32:42.201Z,1014.2
2019-02-28T04:33:42.184Z,1014.15
2019-02-28T04:34:42.163Z,1014.12
2019-02-28T04:35:42.142Z,1014.12
2019-02-28T04:36:42.114Z,1014.14
2019-02-28T04:37:46.424Z,1014.11
2019-02-28T04:38:42.078Z,1014.13
2019-02-28T04:39:42.053Z,1014.12
2019-02-28T04:40:42.031Z,1014.19
2019-02-28T04:41:42.009Z,1014.17
2019-02-28T04:42:41.993Z,1014.2
2019-02-28T04:43:44.346Z,1014.24
2019-02-28T04:44:41.951Z,1014.23
2019-02-28T04:45:41.925Z,1014.23
2019-02-28T04:46:41.908Z,1014.17
2019-02-28T04:47:41.923Z,1014.17
2019-02-28T04:48:41.865Z,1014.21
2019-02-28T04:49:41.840Z,1014.18
2019-02-28T04:50:41.819Z,1014.15
2019-02-28T04:51:41.800Z,1014.16
2019-02-28T04:52:46.262Z,1014.16
2019-02-28T04:53:41.754Z,1014.15
2019-02-28T04:54:41.734Z,1014.16
2019-02-28T04:55:41.725Z,1014.15
2019-02-28T04:56:42.218Z,1014.12
2019-02-28T04:57:41.675Z,1014.18
2019-02-28T04:58:41.681Z,1014.1
2019-02-28T04:59:41.676Z,1014.08
2019-02-28T05:00:41.606Z,1014.11
2019-02-28T05:01:45.175Z,1014.11
2019-02-28T05:02:41.565Z,1014.12
2019-02-28T05:03:41.542Z,1014.11
2019-02-28T05:04:41.568Z,1014.1
2019-02-28T05:05:46.350Z,1014.14
2019-02-28T05:06:41.549Z,1014.1
2019-02-28T05:07:41.596Z,1014.1
2019-02-28T05:08:41.437Z,1014.13
2019-02-28T05:09:41.419Z,1014.15
2019-02-28T05:10:41.398Z,1014.12
2019-02-28T05:11:41.372Z,1014.15
2019-02-28T05:12:41.350Z,1014.14
2019-02-28T05:13:41.329Z,1014.13
2019-02-28T05:14:41.313Z,1014.17
2019-02-28T05:15:41.296Z,1014.18
2019-02-28T05:16:46.851Z,1014.14
2019-02-28T05:17:41.246Z,1014.09
2019-02-28T05:18:41.228Z,1014.1
2019-02-28T05:19:41.211Z,1014.11
2019-02-28T05:20:44.612Z,1014.07
2019-02-28T05:21:41.160Z,1014.05
2019-02-28T05:22:41.168Z,1014.05
2019-02-28T05:23:41.122Z,1014.12
2019-02-28T05:24:42.544Z,1014.09
2019-02-28T05:25:41.075Z,1014.08
2019-02-28T05:26:41.053Z,1014.04
2019-02-28T05:27:41.036Z,1014.06
2019-02-28T05:28:41.362Z,1014
2019-02-28T05:29:43.850Z,1014
2019-02-28T05:30:41.578Z,1013.95
2019-02-28T05:31:40.951Z,1013.93
2019-02-28T05:32:40.925Z,1013.94
2019-02-28T05:33:41.875Z,1013.93
2019-02-28T05:34:40.886Z,1013.95
2019-02-28T05:35:40.863Z,1013.96
2019-02-28T05:36:40.841Z,1013.96
2019-02-28T05:37:46.435Z,1014.01
2019-02-28T05:38:40.801Z,1014
2019-02-28T05:39:40.778Z,1013.99
2019-02-28T05:40:41.492Z,1013.95
2019-02-28T05:41:40.739Z,1013.95
2019-02-28T05:42:40.715Z,1013.99
2019-02-28T05:43:40.786Z,1013.96
2019-02-28T05:44:40.970Z,1013.96
2019-02-28T05:45:40.650Z,1013.94
2019-02-28T05:46:40.633Z,1013.99
2019-02-28T05:47:46.083Z,1013.97
2019-02-28T05:48:40.589Z,1014
2019-02-28T05:49:40.843Z,1014.03
2019-02-28T05:50:40.546Z,1014.02
2019-02-28T05:51:40.524Z,1013.99
2019-02-28T05:52:40.505Z,1013.99
2019-02-28T05:53:41.517Z,1014.01
2019-02-28T05:54:40.456Z,1014.07
2019-02-28T05:55:40.440Z,1013.93
2019-02-28T05:56:40.429Z,1013.97
2019-02-28T05:57:43.232Z,1013.96
2019-02-28T05:58:40.376Z,1014.03
2019-02-28T05:59:40.350Z,1014.03
2019-02-28T06:00:40.329Z,1013.97
2019-02-28T06:01:40.310Z,1014.01
2019-02-28T06:02:40.316Z,1014.01
2019-02-28T06:03:40.269Z,1014.03
2019-02-28T06:04:40.248Z,1014.05
2019-02-28T06:05:40.222Z,1014.04
2019-02-28T06:06:40.205Z,1014.04
2019-02-28T06:07:40.185Z,1014.02
2019-02-28T06:08:40.180Z,1013.98
2019-02-28T06:09:40.142Z,1013.99
2019-02-28T06:10:40.118Z,1013.94
2019-02-28T06:11:40.099Z,1013.94
2019-02-28T06:12:40.378Z,1013.89
2019-02-28T06:13:40.062Z,1013.86
2019-02-28T06:14:40.042Z,1013.84
2019-02-28T06:15:40.013Z,1013.84
2019-02-28T06:16:39.992Z,1013.78
2019-02-28T06:17:39.971Z,1013.82
2019-02-28T06:18:40.015Z,1013.81
2019-02-28T06:19:40.130Z,1013.83
2019-02-28T06:20:39.901Z,1013.83
2019-02-28T06:21:39.886Z,1013.86
2019-02-28T06:22:39.860Z,1013.86
2019-02-28T06:23:40.678Z,1013.9
2019-02-28T06:24:39.821Z,1013.88
2019-02-28T06:25:39.803Z,1013.85
2019-02-28T06:26:39.779Z,1013.91
2019-02-28T06:27:41.740Z,1013.88
2019-02-28T06:28:39.732Z,1013.79
2019-02-28T06:29:39.716Z,1013.83
2019-02-28T06:30:41.365Z,1013.77
2019-02-28T06:31:39.669Z,1013.76
2019-02-28T06:32:39.659Z,1013.8
2019-02-28T06:33:39.626Z,1013.79
2019-02-28T06:34:42.192Z,1013.78
2019-02-28T06:35:39.645Z,1013.83
2019-02-28T06:36:39.569Z,1013.85
2019-02-28T06:37:39.540Z,1013.85
2019-02-28T06:38:39.527Z,1013.89
2019-02-28T06:39:39.504Z,1013.81
2019-02-28T06:40:39.480Z,1013.84
2019-02-28T06:41:40.689Z,1013.9
2019-02-28T06:42:39.436Z,1013.82
2019-02-28T06:43:39.417Z,1013.88
2019-02-28T06:44:39.395Z,1013.9
2019-02-28T06:45:39.386Z,1013.98
2019-02-28T06:46:39.989Z,1013.96
2019-02-28T06:47:39.331Z,1013.96
2019-02-28T06:48:39.313Z,1013.98
2019-02-28T06:49:41.781Z,1013.96
2019-02-28T06:50:39.322Z,1013.96
2019-02-28T06:51:39.245Z,1013.97
2019-02-28T06:52:39.222Z,1013.92
2019-02-28T06:53:39.203Z,1013.99
2019-02-28T06:54:40.022Z,1013.89
2019-02-28T06:55:39.163Z,1013.93
2019-02-28T06:56:39.134Z,1013.91
2019-02-28T06:57:39.118Z,1013.93
2019-02-28T06:58:39.121Z,1013.91
2019-02-28T06:59:39.719Z,1013.9
2019-02-28T07:00:39.085Z,1013.87
2019-02-28T07:01:39.101Z,1013.86
2019-02-28T07:02:39.011Z,1013.85
2019-02-28T07:03:39.851Z,1013.88
2019-02-28T07:04:38.998Z,1013.87
2019-02-28T07:05:38.955Z,1013.93
2019-02-28T07:06:38.927Z,1013.91
2019-02-28T07:07:38.899Z,1013.88
2019-02-28T07:08:38.891Z,1013.89
2019-02-28T07:09:38.857Z,1013.9
2019-02-28T07:10:38.848Z,1013.87
2019-02-28T07:11:38.819Z,1013.84
2019-02-28T07:12:38.798Z,1013.89
2019-02-28T07:13:39.789Z,1013.89
2019-02-28T07:14:38.762Z,1013.86
2019-02-28T07:15:38.732Z,1013.86
2019-02-28T07:16:38.718Z,1013.84
2019-02-28T07:17:38.687Z,1013.81
2019-02-28T07:18:38.664Z,1013.84
2019-02-28T07:19:38.647Z,1013.88
2019-02-28T07:20:38.627Z,1013.87
2019-02-28T07:21:42.655Z,1013.85
2019-02-28T07:22:40.071Z,1013.87
2019-02-28T07:23:38.562Z,1013.87
2019-02-28T07:24:38.537Z,1013.87
2019-02-28T07:25:38.560Z,1013.76
2019-02-28T07:26:38.493Z,1013.82
2019-02-28T07:27:38.517Z,1013.76
2019-02-28T07:28:38.449Z,1013.73
2019-02-28T07:29:38.433Z,1013.74
2019-02-28T07:30:38.412Z,1013.78
2019-02-28T07:31:38.413Z,1013.83
2019-02-28T07:32:38.364Z,1013.78
2019-02-28T07:33:38.360Z,1013.88
2019-02-28T07:34:38.346Z,1013.9
2019-02-28T07:35:38.300Z,1013.91
2019-02-28T07:36:38.279Z,1013.96
2019-02-28T07:37:38.273Z,1013.93
2019-02-28T07:38:38.236Z,1013.87
2019-02-28T07:39:40.252Z,1013.93
2019-02-28T07:40:38.197Z,1013.92
2019-02-28T07:41:38.176Z,1013.93
2019-02-28T07:42:38.581Z,1013.93
2019-02-28T07:43:38.140Z,1013.94
2019-02-28T07:44:38.131Z,1013.96
2019-02-28T07:45:38.095Z,1013.99
2019-02-28T07:46:38.488Z,1013.97
2019-02-28T07:47:38.044Z,1014.02
2019-02-28T07:48:38.022Z,1013.99
2019-02-28T07:49:38.006Z,1014.04
2019-02-28T07:50:37.982Z,1014.03
2019-02-28T07:51:37.959Z,1013.99
2019-02-28T07:52:37.941Z,1013.99
2019-02-28T07:53:40.908Z,1013.97
2019-02-28T07:54:37.898Z,1013.95
2019-02-28T07:55:37.906Z,1013.92
2019-02-28T07:56:42.465Z,1013.95
2019-02-28T07:57:37.830Z,1013.96
2019-02-28T07:58:37.829Z,1013.96
2019-02-28T07:59:42.210Z,1013.91
2019-02-28T08:00:37.776Z,1013.9
2019-02-28T08:01:37.744Z,1013.84
2019-02-28T08:02:39.119Z,1013.84
2019-02-28T08:03:37.706Z,1013.87
2019-02-28T08:04:37.686Z,1013.83
2019-02-28T08:05:37.661Z,1013.83
2019-02-28T08:06:39.185Z,1013.81
2019-02-28T08:07:37.639Z,1013.86
2019-02-28T08:08:37.600Z,1013.88
2019-02-28T08:09:40.557Z,1013.89
2019-02-28T08:10:37.554Z,1013.88
2019-02-28T08:11:37.536Z,1013.89
2019-02-28T08:12:37.510Z,1013.86
2019-02-28T08:13:38.557Z,1013.86
2019-02-28T08:14:37.468Z,1013.81
2019-02-28T08:15:37.466Z,1013.76
2019-02-28T08:16:37.501Z,1013.75
2019-02-28T08:17:40.569Z,1013.7
2019-02-28T08:18:37.387Z,1013.71
2019-02-28T08:19:37.361Z,1013.65
2019-02-28T08:20:37.339Z,1013.65
2019-02-28T08:21:37.399Z,1013.62
2019-02-28T08:22:37.302Z,1013.59
2019-02-28T08:23:37.628Z,1013.54
2019-02-28T08:24:37.254Z,1013.6
2019-02-28T08:25:39.602Z,1013.58
2019-02-28T08:26:37.218Z,1013.56
2019-02-28T08:27:37.194Z,1013.61
2019-02-28T08:28:37.173Z,1013.56
2019-02-28T08:29:37.148Z,1013.61
2019-02-28T08:30:37.131Z,1013.66
2019-02-28T08:31:37.124Z,1013.56
2019-02-28T08:32:42.297Z,1013.59
2019-02-28T08:33:37.062Z,1013.55
2019-02-28T08:34:37.040Z,1013.58
2019-02-28T08:35:37.119Z,1013.52
2019-02-28T08:36:37.006Z,1013.53
2019-02-28T08:37:36.976Z,1013.55
2019-02-28T08:38:36.962Z,1013.58
2019-02-28T08:39:36.980Z,1013.71
2019-02-28T08:40:36.922Z,1013.64
2019-02-28T08:41:36.895Z,1013.57
2019-02-28T08:42:39.583Z,1013.67
2019-02-28T08:43:36.853Z,1013.64
2019-02-28T08:44:36.828Z,1013.66
2019-02-28T08:45:36.810Z,1013.68
2019-02-28T08:46:36.785Z,1013.69
2019-02-28T08:47:36.764Z,1013.67
2019-02-28T08:48:36.741Z,1013.69
2019-02-28T08:49:41.861Z,1013.71
2019-02-28T08:50:36.707Z,1013.76
2019-02-28T08:51:36.678Z,1013.74
2019-02-28T08:52:37.548Z,1013.73
2019-02-28T08:53:36.647Z,1013.75
2019-02-28T08:54:36.620Z,1013.74
2019-02-28T08:55:38.249Z,1013.69
2019-02-28T08:56:36.571Z,1013.67
2019-02-28T08:57:36.550Z,1013.66
2019-02-28T08:58:37.576Z,1013.67
2019-02-28T08:59:36.512Z,1013.68
2019-02-28T09:00:37.679Z,1013.61
2019-02-28T09:01:39.892Z,1013.61
2019-02-28T09:02:36.449Z,1013.59
2019-02-28T09:03:36.512Z,1013.63
2019-02-28T09:04:41.137Z,1013.64
2019-02-28T09:05:36.448Z,1013.59
2019-02-28T09:06:37.790Z,1013.59
2019-02-28T09:07:36.341Z,1013.61
2019-02-28T09:08:36.320Z,1013.59
2019-02-28T09:09:36.322Z,1013.57
2019-02-28T09:10:37.461Z,1013.61
2019-02-28T09:11:36.267Z,1013.59
2019-02-28T09:12:36.249Z,1013.57
2019-02-28T09:13:36.213Z,1013.58
2019-02-28T09:14:36.188Z,1013.53
2019-02-28T09:15:36.190Z,1013.52
2019-02-28T09:16:36.615Z,1013.54
2019-02-28T09:17:37.807Z,1013.49
2019-02-28T09:18:36.173Z,1013.47
2019-02-28T09:19:36.924Z,1013.51
2019-02-28T09:20:36.059Z,1013.48
2019-02-28T09:21:36.039Z,1013.52
2019-02-28T09:22:36.030Z,1013.44
2019-02-28T09:23:37.497Z,1013.45
2019-02-28T09:24:36.007Z,1013.59
2019-02-28T09:25:35.953Z,1013.54
2019-02-28T09:26:35.933Z,1013.4
2019-02-28T09:27:38.753Z,1013.35
2019-02-28T09:28:35.897Z,1013.34
2019-02-28T09:29:35.873Z,1013.33
2019-02-28T09:30:35.847Z,1013.3
2019-02-28T09:31:38.548Z,1013.35
2019-02-28T09:32:35.804Z,1013.27
2019-02-28T09:33:35.826Z,1013.23
2019-02-28T09:34:35.763Z,1013.24
2019-02-28T09:35:35.742Z,1013.19
2019-02-28T09:36:35.719Z,1013.17
2019-02-28T09:37:36.046Z,1013.16
2019-02-28T09:38:35.681Z,1013.16
2019-02-28T09:39:35.657Z,1013.23
2019-02-28T09:40:35.648Z,1013.26
2019-02-28T09:41:36.350Z,1013.31
2019-02-28T09:42:35.603Z,1013.31
2019-02-28T09:43:35.572Z,1013.37
2019-02-28T09:44:35.550Z,1013.31
2019-02-28T09:45:35.537Z,1013.38
2019-02-28T09:46:35.514Z,1013.29
2019-02-28T09:47:35.579Z,1013.26
2019-02-28T09:48:37.072Z,1013.26
2019-02-28T09:49:35.451Z,1013.22
2019-02-28T09:50:35.428Z,1013.27
2019-02-28T09:51:35.407Z,1013.3
2019-02-28T09:52:41.220Z,1013.31
2019-02-28T09:53:35.362Z,1013.34
2019-02-28T09:54:35.338Z,1013.34
2019-02-28T09:55:35.579Z,1013.34
2019-02-28T09:56:35.302Z,1013.35
2019-02-28T09:57:35.275Z,1013.35
2019-02-28T09:58:35.329Z,1013.33
2019-02-28T09:59:37.667Z,1013.36
2019-02-28T10:00:35.218Z,1013.35
2019-02-28T10:01:35.199Z,1013.36
2019-02-28T10:02:35.170Z,1013.36
2019-02-28T10:03:35.157Z,1013.37
2019-02-28T10:04:35.129Z,1013.33
2019-02-28T10:05:35.112Z,1013.36
2019-02-28T10:06:35.090Z,1013.28
2019-02-28T10:07:35.074Z,1013.31
2019-02-28T10:08:36.608Z,1013.23
2019-02-28T10:09:35.063Z,1013.26
2019-02-28T10:10:35.010Z,1013.22
2019-02-28T10:11:34.997Z,1013.19
2019-02-28T10:12:34.959Z,1013.23
2019-02-28T10:13:34.947Z,1013.21
2019-02-28T10:14:34.921Z,1013.2
2019-02-28T10:15:34.954Z,1013.24
2019-02-28T10:16:34.877Z,1013.23
2019-02-28T10:17:34.853Z,1013.25
2019-02-28T10:18:35.429Z,1013.31
2019-02-28T10:19:43.829Z,1013.36
2019-02-28T10:20:34.794Z,1013.33
2019-02-28T10:21:36.192Z,1013.29
2019-02-28T10:22:34.757Z,1013.27
2019-02-28T10:23:34.732Z,1013.23
2019-02-28T10:24:34.710Z,1013.25
2019-02-28T10:25:39.957Z,1013.28
2019-02-28T10:26:34.685Z,1013.31
2019-02-28T10:27:34.647Z,1013.32
2019-02-28T10:28:34.626Z,1013.33
2019-02-28T10:29:34.602Z,1013.32
2019-02-28T10:30:34.579Z,1013.4
2019-02-28T10:31:38.124Z,1013.37
2019-02-28T10:32:34.548Z,1013.35
2019-02-28T10:33:34.537Z,1013.32
2019-02-28T10:34:35.399Z,1013.29
2019-02-28T10:35:36.674Z,1013.3
2019-02-28T10:36:34.556Z,1013.32
2019-02-28T10:37:35.633Z,1013.27
2019-02-28T10:38:34.410Z,1013.35
2019-02-28T10:39:34.390Z,1013.34
2019-02-28T10:40:34.369Z,1013.39
2019-02-28T10:41:34.354Z,1013.41
2019-02-28T10:42:36.940Z,1013.37
2019-02-28T10:43:34.307Z,1013.45
2019-02-28T10:44:34.284Z,1013.42
2019-02-28T10:45:34.566Z,1013.39
2019-02-28T10:46:36.023Z,1013.41
2019-02-28T10:47:34.221Z,1013.38
2019-02-28T10:48:35.207Z,1013.38
2019-02-28T10:49:34.179Z,1013.38
2019-02-28T10:50:34.163Z,1013.43
2019-02-28T10:51:34.137Z,1013.44
2019-02-28T10:52:34.125Z,1013.41
2019-02-28T10:53:36.213Z,1013.42
2019-02-28T10:54:34.154Z,1013.41
2019-02-28T10:55:34.057Z,1013.39
2019-02-28T10:56:34.035Z,1013.38
2019-02-28T10:57:34.011Z,1013.32
2019-02-28T10:58:33.991Z,1013.41
2019-02-28T10:59:33.975Z,1013.54
2019-02-28T11:00:33.951Z,1013.42
2019-02-28T11:01:33.926Z,1013.39
2019-02-28T11:02:33.905Z,1013.43
2019-02-28T11:03:33.892Z,1013.48
2019-02-28T11:04:33.869Z,1013.46
2019-02-28T11:05:33.854Z,1013.41
2019-02-28T11:06:33.821Z,1013.26
2019-02-28T11:07:34.179Z,1013.3
2019-02-28T11:08:33.811Z,1013.34
2019-02-28T11:09:33.763Z,1013.4
2019-02-28T11:10:35.399Z,1013.52
2019-02-28T11:11:33.717Z,1013.37
2019-02-28T11:12:33.707Z,1013.36
2019-02-28T11:13:33.679Z,1013.33
2019-02-28T11:14:35.434Z,1013.54
2019-02-28T11:15:33.713Z,1013.54
2019-02-28T11:16:33.613Z,1013.56
2019-02-28T11:17:34.295Z,1013.51
2019-02-28T11:18:33.575Z,1013.5
2019-02-28T11:19:33.702Z,1013.52
2019-02-28T11:20:33.641Z,1013.49
2019-02-28T11:21:33.653Z,1013.51
2019-02-28T11:22:36.430Z,1013.47
2019-02-28T11:23:33.472Z,1013.39
2019-02-28T11:24:33.449Z,1013.38
2019-02-28T11:25:35.426Z,1013.41
2019-02-28T11:26:33.405Z,1013.38
2019-02-28T11:27:33.384Z,1013.37
2019-02-28T11:28:33.363Z,1013.38
2019-02-28T11:29:35.072Z,1013.42
2019-02-28T11:30:33.333Z,1013.41
2019-02-28T11:31:33.448Z,1013.4
2019-02-28T11:32:33.309Z,1013.35
2019-02-28T11:33:33.251Z,1013.34
2019-02-28T11:34:33.230Z,1013.28
2019-02-28T11:35:33.227Z,1013.26
2019-02-28T11:36:33.976Z,1013.3
2019-02-28T11:37:33.169Z,1013.31
2019-02-28T11:38:33.142Z,1013.29
2019-02-28T11:39:33.786Z,1013.3
2019-02-28T11:40:33.098Z,1013.33
2019-02-28T11:41:33.081Z,1013.32
2019-02-28T11:42:33.055Z,1013.25
2019-02-28T11:43:37.199Z,1013.24
2019-02-28T11:44:33.011Z,1013.25
2019-02-28T11:45:32.994Z,1013.21
2019-02-28T11:46:35.510Z,1013.31
2019-02-28T11:47:32.946Z,1013.28
2019-02-28T11:48:32.954Z,1013.35
2019-02-28T11:49:32.906Z,1013.32
2019-02-28T11:50:32.928Z,1013.28
2019-02-28T11:51:32.857Z,1013.28
2019-02-28T11:52:32.838Z,1013.31
2019-02-28T11:53:32.813Z,1013.29
2019-02-28T11:54:32.797Z,1013.3
2019-02-28T11:55:32.769Z,1013.27
2019-02-28T11:56:32.752Z,1013.26
2019-02-28T11:57:32.730Z,1013.3
2019-02-28T11:58:32.708Z,1013.3
2019-02-28T11:59:32.687Z,1013.3
2019-02-28T12:00:35.612Z,1013.3
2019-02-28T12:01:32.683Z,1013.28
2019-02-28T12:02:32.617Z,1013.26
2019-02-28T12:03:35.412Z,1013.24
2019-02-28T12:04:32.578Z,1013.25
2019-02-28T12:05:32.662Z,1013.28
2019-02-28T12:06:32.530Z,1013.22
2019-02-28T12:07:34.854Z,1013.31
2019-02-28T12:08:32.491Z,1013.24